createdAt,value
2022-10-17T00:02:18.426Z,75.40
2022-10-17T00:07:21.768Z,75.00
2022-10-17T00:12:26.634Z,74.70
2022-10-17T00:17:30.351Z,74.70
2022-10-17T00:22:33.863Z,74.90
2022-10-17T00:27:39.061Z,75.20
2022-10-17T00:32:42.545Z,75.20
2022-10-17T00:37:46.085Z,75.30
2022-10-17T00:42:53.084Z,75.10
2022-10-17T00:48:00.351Z,75.60
2022-10-17T00:53:06.590Z,76.10
2022-10-17T00:58:11.390Z,76.00
2022-10-17T01:03:15.156Z,76.10
2022-10-17T01:08:18.752Z,76.00
2022-10-17T01:13:29.425Z,75.90
2022-10-17T01:18:44.424Z,76.00
2022-10-17T01:24:08.774Z,75.90
2022-10-17T01:29:35.706Z,75.90
2022-10-17T01:34:46.253Z,75.60
2022-10-17T01:39:53.540Z,75.90
2022-10-17T01:45:01.017Z,76.10
2022-10-17T01:50:10.503Z,76.30
2022-10-17T01:55:20.024Z,76.40
2022-10-17T02:00:26.207Z,76.50
2022-10-17T02:05:34.238Z,76.40
2022-10-17T02:10:43.310Z,76.10
2022-10-17T02:16:12.632Z,76.20
2022-10-17T02:21:24.575Z,76.50
2022-10-17T02:26:32.495Z,76.50
2022-10-17T02:31:40.563Z,76.40
2022-10-17T02:36:49.310Z,76.50
2022-10-17T02:41:55.091Z,76.50
2022-10-17T02:47:06.380Z,76.50
2022-10-17T02:52:16.928Z,76.30
2022-10-17T02:57:26.759Z,76.20
2022-10-17T03:02:30.370Z,76.00
2022-10-17T03:07:35.197Z,76.20
2022-10-17T03:12:38.564Z,76.40
2022-10-17T03:17:42.397Z,76.40
2022-10-17T03:22:47.080Z,76.60
2022-10-17T03:27:50.723Z,76.70
2022-10-17T03:32:54.048Z,76.60
2022-10-17T03:37:58.700Z,76.80
2022-10-17T03:43:01.970Z,77.00
2022-10-17T03:48:05.832Z,77.00
2022-10-17T03:53:10.410Z,77.10
2022-10-17T03:58:14.180Z,77.40
2022-10-17T04:03:17.542Z,77.20
2022-10-17T04:08:22.172Z,77.00
2022-10-17T04:13:25.476Z,76.80
2022-10-17T04:18:29.053Z,76.80
2022-10-17T04:23:34.532Z,77.00
2022-10-17T04:33:43.197Z,77.30
2022-10-17T04:38:48.366Z,77.30
2022-10-17T04:43:51.673Z,77.20
2022-10-17T04:48:55.347Z,77.10
2022-10-17T04:54:00.273Z,77.00
2022-10-17T04:59:03.645Z,76.80
2022-10-17T05:04:07.057Z,76.70
2022-10-17T05:09:11.940Z,76.60
2022-10-17T05:14:16.374Z,76.70
2022-10-17T05:19:19.904Z,76.60
2022-10-17T05:24:25.532Z,76.70
2022-10-17T05:29:29.194Z,76.60
2022-10-17T05:34:32.640Z,76.50
2022-10-17T05:39:37.613Z,76.50
2022-10-17T05:44:41.528Z,76.60
2022-10-17T05:49:48.727Z,76.80
2022-10-17T05:54:56.002Z,76.70
2022-10-17T05:59:59.687Z,76.40
2022-10-17T06:05:02.947Z,76.40
2022-10-17T06:10:08.559Z,76.40
2022-10-17T06:15:12.993Z,76.50
2022-10-17T06:20:16.386Z,78.00
2022-10-17T06:25:20.973Z,77.40
2022-10-17T06:30:24.310Z,77.40
2022-10-17T06:35:27.827Z,77.40
2022-10-17T06:40:32.432Z,77.10
2022-10-17T06:45:35.914Z,77.40
2022-10-17T06:50:39.477Z,77.50
2022-10-17T06:55:44.321Z,77.50
2022-10-17T07:00:47.689Z,78.40
2022-10-17T07:05:53.197Z,77.20
2022-10-17T07:10:58.105Z,77.40
2022-10-17T07:16:01.926Z,77.60
2022-10-17T07:21:05.718Z,77.50
2022-10-17T07:26:12.851Z,77.40
2022-10-17T07:31:19.879Z,77.60
2022-10-17T07:36:23.339Z,77.50
2022-10-17T07:41:28.107Z,77.40
2022-10-17T07:46:31.484Z,77.70
2022-10-17T07:51:34.878Z,77.60
2022-10-17T07:56:39.650Z,77.50
2022-10-17T08:01:43.363Z,77.20
2022-10-17T08:06:46.666Z,77.70
2022-10-17T08:11:51.542Z,76.10
2022-10-17T08:16:55.879Z,76.00
2022-10-17T08:21:59.417Z,75.90
2022-10-17T08:27:11.199Z,75.60
2022-10-17T08:32:14.573Z,75.20
2022-10-17T08:37:17.983Z,74.50
2022-10-17T08:42:48.795Z,73.60
2022-10-17T08:47:58.830Z,72.20
2022-10-17T08:53:07.068Z,71.80
2022-10-17T08:58:17.031Z,71.10
2022-10-17T09:03:33.717Z,71.20
2022-10-17T09:08:45.560Z,69.40
2022-10-17T09:14:02.676Z,69.30
2022-10-17T09:19:12.787Z,68.70
2022-10-17T09:24:22.506Z,69.20
2022-10-17T09:29:34.167Z,67.80
2022-10-17T09:34:39.466Z,67.00
2022-10-17T09:39:43.888Z,66.40
2022-10-17T09:44:55.293Z,65.50
2022-10-17T09:49:58.981Z,64.90
2022-10-17T09:55:06.053Z,63.50
2022-10-17T10:00:22.375Z,62.70
2022-10-17T10:05:25.827Z,61.60
2022-10-17T10:10:31.007Z,60.90
2022-10-17T10:15:38.949Z,60.10
2022-10-17T10:20:46.688Z,59.70
2022-10-17T10:25:59.048Z,58.30
2022-10-17T10:31:07.641Z,57.70
2022-10-17T10:36:11.498Z,56.80
2022-10-17T10:41:14.828Z,54.90
2022-10-17T10:46:23.235Z,55.50
2022-10-17T10:51:33.513Z,54.40
2022-10-17T10:56:41.075Z,54.00
2022-10-17T11:01:50.956Z,53.50
2022-10-17T11:07:01.494Z,51.70
2022-10-17T11:12:08.087Z,51.50
2022-10-17T11:17:22.816Z,51.60
2022-10-17T11:22:32.571Z,50.70
2022-10-17T11:27:36.395Z,50.10
2022-10-17T11:32:46.799Z,50.90
2022-10-17T11:37:56.509Z,50.30
2022-10-17T11:43:02.655Z,49.50
2022-10-17T11:48:13.500Z,49.20
2022-10-17T11:53:20.220Z,48.50
2022-10-17T11:58:37.459Z,47.30
2022-10-17T12:03:52.879Z,46.50
2022-10-17T12:09:02.118Z,46.10
2022-10-17T12:14:38.682Z,45.10
2022-10-17T12:19:42.256Z,44.30
2022-10-17T12:24:54.672Z,43.80
2022-10-17T12:30:02.010Z,43.80
2022-10-17T12:35:06.391Z,43.30
2022-10-17T12:40:48.524Z,42.90
2022-10-17T12:45:54.890Z,41.60
2022-10-17T12:51:30.857Z,42.40
2022-10-17T12:56:37.240Z,42.70
2022-10-17T13:01:46.620Z,42.60
2022-10-17T13:06:54.223Z,42.60
2022-10-17T13:12:01.068Z,42.70
2022-10-17T13:17:07.931Z,42.50
2022-10-17T13:22:17.054Z,42.40
2022-10-17T13:27:26.891Z,42.70
2022-10-17T13:32:39.257Z,41.80
2022-10-17T13:37:44.561Z,40.90
2022-10-17T13:42:48.613Z,41.00
2022-10-17T13:47:53.276Z,39.90
2022-10-17T13:53:26.723Z,39.30
2022-10-17T13:58:40.198Z,40.00
2022-10-17T14:03:48.750Z,38.90
2022-10-17T14:08:59.667Z,38.70
2022-10-17T14:14:05.925Z,38.90
2022-10-17T14:19:23.944Z,38.40
2022-10-17T14:24:31.602Z,38.80
2022-10-17T14:29:53.129Z,39.30
2022-10-17T14:35:17.858Z,39.80
2022-10-17T14:40:25.631Z,40.40
2022-10-17T14:45:30.723Z,41.20
2022-10-17T14:50:36.355Z,41.90
2022-10-17T14:55:42.247Z,42.40
2022-10-17T15:00:45.621Z,42.90
2022-10-17T15:05:51.418Z,43.20
2022-10-17T15:10:57.062Z,43.30
2022-10-17T15:16:00.886Z,43.30
2022-10-17T15:21:19.724Z,43.40
2022-10-17T15:26:33.467Z,43.80
2022-10-17T15:31:36.789Z,44.20
2022-10-17T15:36:43.587Z,44.70
2022-10-17T15:41:48.406Z,45.00
2022-10-17T15:46:51.986Z,45.40
2022-10-17T15:51:56.621Z,45.30
2022-10-17T15:56:59.960Z,45.30
2022-10-17T16:02:03.212Z,45.50
2022-10-17T16:07:08.347Z,45.80
2022-10-17T16:12:15.982Z,45.50
2022-10-17T16:17:19.937Z,46.20
2022-10-17T16:22:30.038Z,46.40
2022-10-17T16:27:33.569Z,46.70
2022-10-17T16:32:36.863Z,46.90
2022-10-17T16:37:41.734Z,47.00
2022-10-17T16:42:45.533Z,47.50
2022-10-17T16:47:50.537Z,47.80
2022-10-17T16:52:55.193Z,47.90
2022-10-17T16:57:59.991Z,48.30
2022-10-17T17:03:03.338Z,48.50
2022-10-17T17:08:11.802Z,48.60
2022-10-17T17:13:16.113Z,48.50
2022-10-17T17:18:19.726Z,48.50
2022-10-17T17:23:24.805Z,48.50
2022-10-17T17:28:29.126Z,48.70
2022-10-17T17:33:33.797Z,48.90
2022-10-17T17:38:40.083Z,49.00
2022-10-17T17:43:44.098Z,49.20
2022-10-17T17:48:48.681Z,49.40
2022-10-17T17:53:53.624Z,49.60
2022-10-17T17:58:59.264Z,49.70
2022-10-17T18:04:02.600Z,49.80
2022-10-17T18:09:09.048Z,50.10
2022-10-17T18:14:13.649Z,50.30
2022-10-17T18:19:17.660Z,50.30
2022-10-17T18:24:22.804Z,50.60
2022-10-17T18:29:26.364Z,50.60
2022-10-17T18:34:29.798Z,50.80
2022-10-17T18:39:35.468Z,51.10
2022-10-17T18:44:39.254Z,51.20
2022-10-17T18:49:42.937Z,51.30
2022-10-17T18:54:47.635Z,51.30
2022-10-17T18:59:51.176Z,51.50
2022-10-17T19:04:54.882Z,51.60
2022-10-17T19:09:59.830Z,51.60
2022-10-17T19:15:03.377Z,51.70
2022-10-17T19:20:08.463Z,51.70
2022-10-17T19:25:13.143Z,51.70
2022-10-17T19:30:16.434Z,51.80
2022-10-17T19:35:19.870Z,51.70
2022-10-17T19:40:24.509Z,51.80
2022-10-17T19:45:27.833Z,51.70
2022-10-17T19:50:31.359Z,51.70
2022-10-17T19:55:36.274Z,51.90
2022-10-17T20:00:39.586Z,52.00
2022-10-17T20:05:42.940Z,52.00
2022-10-17T20:10:47.865Z,52.10
2022-10-17T20:15:57.615Z,52.20
2022-10-17T20:21:04.803Z,52.20
2022-10-17T20:26:26.402Z,52.10
2022-10-17T20:31:40.376Z,52.10
2022-10-17T20:36:44.229Z,52.10
2022-10-17T20:41:49.106Z,52.00
2022-10-17T20:47:01.809Z,51.90
2022-10-17T20:52:07.028Z,51.90
2022-10-17T20:57:11.648Z,51.90
2022-10-17T21:02:15.331Z,52.40
2022-10-17T21:07:18.652Z,52.80
2022-10-17T21:12:36.635Z,53.10
2022-10-17T21:17:46.798Z,53.00
2022-10-17T21:22:50.372Z,53.10
2022-10-17T21:27:55.263Z,53.50
2022-10-17T21:32:58.933Z,53.70
2022-10-17T21:38:02.354Z,53.80
2022-10-17T21:43:07.250Z,54.00
2022-10-17T21:48:12.921Z,54.10
2022-10-17T21:53:17.011Z,54.20
2022-10-17T21:58:22.703Z,54.00
2022-10-17T22:03:25.965Z,54.40
2022-10-17T22:08:30.263Z,54.30
2022-10-17T22:13:35.242Z,54.60
2022-10-17T22:18:39.337Z,55.00
2022-10-17T22:23:43.318Z,55.00
2022-10-17T22:28:48.340Z,55.10
2022-10-17T22:33:52.030Z,55.10
2022-10-17T22:38:55.342Z,55.10
2022-10-17T22:44:00.385Z,55.20
2022-10-17T22:49:03.811Z,55.50
2022-10-17T22:54:07.489Z,55.60
2022-10-17T22:59:12.155Z,55.60
2022-10-17T23:04:15.409Z,55.60
2022-10-17T23:09:18.990Z,55.80
2022-10-17T23:14:23.657Z,55.80
2022-10-17T23:19:26.937Z,56.10
2022-10-17T23:24:31.008Z,56.30
2022-10-17T23:29:35.943Z,56.10
2022-10-17T23:34:39.227Z,56.30
2022-10-17T23:39:42.670Z,56.60
2022-10-17T23:44:47.350Z,56.70
2022-10-17T23:49:50.719Z,57.00
2022-10-17T23:54:54.037Z,57.10
2022-10-17T23:59:58.683Z,57.00
